Time;durP1;ratioP1;P1;durP2;ratioP2;P2;SDS_P1;SDS_P2;PMS_P1;PMS_P2;Temp;Humidity;BMP_temperature;BMP_pressure;BME280_temperature;BME280_humidity;BME280_pressure;Samples;Min_cycle;Max_cycle;Signal;HPM_P1;HPM_P2
2024/01/24 00:00:25;;;;;;;4.33;1.90;;;;;;;12.27;100.00;101274.09;5242215;28;20448;-72
2024/01/24 00:02:56;;;;;;;8.20;3.00;;;;;;;12.24;100.00;101246.25;5245732;28;20075;-72
2024/01/24 00:05:28;;;;;;;4.50;1.73;;;;;;;12.26;100.00;101230.56;5261829;28;20060;-72
2024/01/24 00:07:59;;;;;;;5.77;1.87;;;;;;;12.25;100.00;101216.59;5262311;28;20036;-71
2024/01/24 00:10:30;;;;;;;7.77;2.20;;;;;;;12.29;100.00;101234.00;5263441;28;20473;-71
2024/01/24 00:13:02;;;;;;;6.13;2.30;;;;;;;12.30;100.00;101246.19;5263284;28;20025;-71
2024/01/24 00:15:33;;;;;;;6.03;2.27;;;;;;;12.31;100.00;101249.66;5263090;28;20171;-72
2024/01/24 00:18:05;;;;;;;5.27;2.10;;;;;;;12.29;100.00;101265.38;5263299;28;20150;-72
2024/01/24 00:20:36;;;;;;;5.23;2.10;;;;;;;12.42;100.00;101281.75;5262958;28;20060;-72
2024/01/24 00:23:08;;;;;;;6.50;1.77;;;;;;;12.33;100.00;101268.78;5263102;28;20035;-72
2024/01/24 00:25:39;;;;;;;6.17;1.70;;;;;;;12.34;100.00;101271.41;5250446;28;20481;-73
2024/01/24 00:28:12;;;;;;;3.90;1.73;;;;;;;12.38;100.00;101259.13;5240741;28;20051;-72
2024/01/24 00:30:43;;;;;;;;;;;;;;;12.44;100.00;101264.28;5241483;28;20391;-72
2024/01/24 00:33:15;;;;;;;3.55;1.75;;;;;;;12.45;100.00;101247.75;5242040;28;19913;-72
2024/01/24 00:35:47;;;;;;;3.65;1.63;;;;;;;12.46;100.00;101233.78;5243017;28;20117;-72
2024/01/24 00:38:18;;;;;;;3.53;1.43;;;;;;;12.47;100.00;101252.94;5241160;28;20084;-72
2024/01/24 00:40:49;;;;;;;3.07;1.40;;;;;;;12.46;100.00;101236.41;5241584;28;20029;-72
2024/01/24 00:43:21;;;;;;;1.93;1.27;;;;;;;12.44;100.00;101273.91;5241804;28;20036;-72
2024/01/24 00:45:52;;;;;;;2.73;1.10;;;;;;;12.45;100.00;101233.81;5241448;28;20057;-72
2024/01/24 00:48:24;;;;;;;4.53;1.50;;;;;;;12.45;100.00;101232.03;5240376;28;20072;-72
2024/01/24 00:50:55;;;;;;;3.93;1.40;;;;;;;12.49;100.00;101259.00;5241323;28;20038;-71
2024/01/24 00:53:29;;;;;;;2.03;1.47;;;;;;;12.53;100.00;101227.56;5241916;28;20377;-72
2024/01/24 00:56:00;;;;;;;6.15;1.50;;;;;;;12.48;100.00;101232.00;5241623;28;20029;-72
2024/01/24 00:58:31;;;;;;;2.87;1.40;;;;;;;12.36;100.00;101235.66;5241488;28;20033;-72
2024/01/24 01:01:03;;;;;;;4.33;1.50;;;;;;;12.28;100.00;101234.88;5240818;28;20049;-75
2024/01/24 01:03:34;;;;;;;3.53;1.43;;;;;;;11.99;100.00;101251.78;5240113;28;20116;-72
2024/01/24 01:06:06;;;;;;;3.27;1.63;;;;;;;11.71;100.00;101251.16;5239618;28;20036;-71
2024/01/24 01:08:37;;;;;;;2.53;1.37;;;;;;;11.64;100.00;101226.88;5240982;28;20429;-72
2024/01/24 01:11:09;;;;;;;4.77;1.87;;;;;;;11.48;100.00;101222.69;5240980;28;20444;-72
2024/01/24 01:13:40;;;;;;;3.17;1.90;;;;;;;11.43;100.00;101220.09;5241237;28;20029;-72
2024/01/24 01:16:11;;;;;;;9.00;2.33;;;;;;;11.39;100.00;101215.78;5241268;28;20417;-72
2024/01/24 01:18:43;;;;;;;3.17;1.50;;;;;;;11.33;100.00;101213.22;5241077;28;20034;-70
2024/01/24 01:21:14;;;;;;;3.57;1.87;;;;;;;11.30;100.00;101219.34;5239729;28;20030;-70
2024/01/24 01:23:45;;;;;;;4.50;1.70;;;;;;;11.31;100.00;101188.91;5241253;28;20040;-71
2024/01/24 01:26:17;;;;;;;5.27;2.67;;;;;;;11.31;100.00;101215.00;5239839;28;20029;-71
2024/01/24 01:28:48;;;;;;;3.73;2.03;;;;;;;11.29;100.00;101211.53;5240921;28;20087;-71
2024/01/24 01:31:19;;;;;;;2.60;1.60;;;;;;;11.32;100.00;101206.28;5240603;28;20025;-71
2024/01/24 01:33:51;;;;;;;2.90;1.70;;;;;;;11.29;100.00;101214.16;5240999;28;20112;-71
2024/01/24 01:36:22;;;;;;;2.27;1.47;;;;;;;11.30;100.00;101192.38;5240778;28;20045;-71
2024/01/24 01:38:54;;;;;;;2.80;1.70;;;;;;;11.35;100.00;101190.59;5240870;28;20095;-71
2024/01/24 01:41:25;;;;;;;3.07;1.60;;;;;;;11.42;100.00;101201.84;5240711;28;20029;-71
2024/01/24 01:43:57;;;;;;;2.47;1.60;;;;;;;11.41;100.00;101208.78;5240419;28;20041;-71
2024/01/24 01:46:29;;;;;;;4.13;1.63;;;;;;;11.36;100.00;101197.53;5240796;28;20045;-72
2024/01/24 01:49:00;;;;;;;5.60;1.40;;;;;;;11.35;100.00;101218.44;5240456;28;20037;-72
2024/01/24 01:51:31;;;;;;;4.37;1.60;;;;;;;11.41;100.00;101216.63;5240722;28;20354;-71
2024/01/24 01:54:04;;;;;;;2.77;1.40;;;;;;;11.32;100.00;101201.06;5240819;28;20034;-73
2024/01/24 01:56:35;;;;;;;3.42;1.60;;;;;;;11.27;100.00;101228.94;5240326;28;20084;-71
2024/01/24 01:59:08;;;;;;;4.87;2.07;;;;;;;11.17;100.00;101209.88;5240549;28;20457;-71
2024/01/24 02:01:43;;;;;;;2.50;1.70;;;;;;;11.06;100.00;101210.00;5240242;28;20029;-71
2024/01/24 02:04:15;;;;;;;3.88;1.80;;;;;;;11.05;100.00;101205.63;5240616;28;20060;-72
2024/01/24 02:06:46;;;;;;;4.60;1.90;;;;;;;11.00;100.00;101217.84;5240393;28;20037;-71
2024/01/24 02:09:17;;;;;;;3.67;1.70;;;;;;;10.97;100.00;101186.59;5240841;28;20034;-72
2024/01/24 02:11:49;;;;;;;3.93;2.00;;;;;;;10.95;100.00;101206.59;5240563;28;20112;-71
2024/01/24 02:14:21;;;;;;;4.80;2.13;;;;;;;10.95;100.00;101210.06;5240659;28;20108;-71
2024/01/24 02:16:52;;;;;;;2.63;1.70;;;;;;;10.95;100.00;101202.25;5240555;28;20485;-71
2024/01/24 02:19:24;;;;;;;2.33;1.70;;;;;;;10.95;100.00;101206.59;5244801;28;20040;-71
2024/01/24 02:21:56;;;;;;;3.17;1.60;;;;;;;10.89;100.00;101201.44;5244344;28;20418;-70
2024/01/24 02:24:28;;;;;;;1.83;1.73;;;;;;;10.86;100.00;101209.28;5244880;28;20041;-71
2024/01/24 02:26:59;;;;;;;1.80;1.60;;;;;;;10.88;100.00;101189.25;5244643;28;20037;-70
2024/01/24 02:29:30;;;;;;;4.03;1.80;;;;;;;10.84;100.00;101188.41;5244375;28;20033;-70
2024/01/24 02:32:02;;;;;;;3.27;1.37;;;;;;;10.83;100.00;101184.06;5243827;28;20138;-71
2024/01/24 02:34:33;;;;;;;3.43;1.80;;;;;;;10.84;100.00;101198.84;5244439;28;20033;-71
2024/01/24 02:37:04;;;;;;;3.17;1.70;;;;;;;10.82;100.00;101198.00;5244388;28;20033;-71
2024/01/24 02:39:36;;;;;;;3.47;1.60;;;;;;;10.85;100.00;101207.53;5244305;28;20092;-71
2024/01/24 02:42:08;;;;;;;2.00;1.70;;;;;;;10.82;100.00;101205.81;5244316;28;20021;-71
2024/01/24 02:44:39;;;;;;;1.85;1.63;;;;;;;10.82;100.00;101203.22;5242617;28;20152;-71
2024/01/24 02:47:11;;;;;;;1.83;1.53;;;;;;;10.80;100.00;101215.38;5244287;28;20128;-71
2024/01/24 02:49:43;;;;;;;1.50;1.40;;;;;;;10.85;100.00;101204.91;5244159;28;20037;-72
2024/01/24 02:52:14;;;;;;;1.67;1.43;;;;;;;10.82;100.00;101205.81;5244046;28;20043;-71
2024/01/24 02:54:45;;;;;;;1.70;1.30;;;;;;;10.82;100.00;101220.59;5243992;28;20034;-70
2024/01/24 02:57:17;;;;;;;1.13;1.03;;;;;;;10.85;100.00;101200.59;5244071;28;20473;-70
2024/01/24 02:59:48;;;;;;;1.40;1.23;;;;;;;10.84;100.00;101200.59;5243532;28;20055;-71
2024/01/24 03:02:19;;;;;;;1.93;1.83;;;;;;;10.83;100.00;101191.88;5243536;28;20025;-71
2024/01/24 03:04:51;;;;;;;1.53;1.43;;;;;;;10.86;100.00;101186.66;5243584;28;20034;-71
2024/01/24 03:07:22;;;;;;;2.37;1.70;;;;;;;10.88;100.00;101200.56;5243807;28;20037;-70
2024/01/24 03:09:54;;;;;;;1.93;1.70;;;;;;;10.91;100.00;101187.47;5243709;28;20124;-70
2024/01/24 03:12:25;;;;;;;3.80;1.97;;;;;;;10.88;100.00;101205.78;5243583;28;20112;-70
2024/01/24 03:14:56;;;;;;;2.20;1.70;;;;;;;10.90;100.00;101197.91;5242320;28;20037;-71
2024/01/24 03:17:28;;;;;;;1.93;1.73;;;;;;;10.90;100.00;101187.50;5243634;28;20033;-71
2024/01/24 03:19:59;;;;;;;2.97;1.80;;;;;;;10.89;100.00;101199.66;5243231;28;20430;-71
2024/01/24 03:22:31;;;;;;;2.00;1.60;;;;;;;10.91;100.00;101208.34;5243480;28;20030;-71
2024/01/24 03:25:03;;;;;;;3.23;1.70;;;;;;;10.92;100.00;101191.81;5243406;28;20033;-72
2024/01/24 03:27:34;;;;;;;2.67;1.43;;;;;;;10.89;100.00;101237.94;5242155;28;20112;-71
2024/01/24 03:30:06;;;;;;;3.80;1.30;;;;;;;11.07;100.00;101231.72;5242209;28;20045;-71
2024/01/24 03:32:37;;;;;;;1.93;1.10;;;;;;;11.00;100.00;101243.94;5242910;28;20483;-71
2024/01/24 03:35:10;;;;;;;3.23;1.43;;;;;;;11.01;100.00;101229.16;5243257;28;20155;-71
2024/01/24 03:37:41;;;;;;;2.55;1.20;;;;;;;11.03;100.00;101277.84;5241766;28;20037;-71
2024/01/24 03:40:12;;;;;;;5.20;1.40;;;;;;;11.10;100.00;101276.06;5242902;28;20033;-71
2024/01/24 03:42:44;;;;;;;3.87;1.30;;;;;;;11.11;100.00;101290.84;5242863;28;20037;-72
2024/01/24 03:45:15;;;;;;;5.17;1.70;;;;;;;11.08;100.00;101255.19;5242584;28;20483;-72
2024/01/24 03:47:48;;;;;;;4.20;1.97;;;;;;;11.12;100.00;101290.84;5243104;28;20198;-72
2024/01/24 03:50:20;;;;;;;5.07;2.05;;;;;;;11.34;100.00;101310.69;5242509;28;20033;-71
2024/01/24 03:52:51;;;;;;;5.43;1.87;;;;;;;11.43;100.00;101290.59;5241720;28;20068;-72
2024/01/24 03:55:22;;;;;;;4.30;1.70;;;;;;;11.46;100.00;101302.75;5242780;28;20068;-72
2024/01/24 03:57:54;;;;;;;6.27;1.63;;;;;;;11.37;100.00;101300.22;5242761;28;20060;-72
2024/01/24 04:00:30;;;;;;;8.40;2.43;;;;;;;11.64;100.00;101328.72;5242864;28;20037;-72
2024/01/24 04:03:01;;;;;;;9.15;3.33;;;;;;;11.85;100.00;101304.13;5241446;28;20033;-72
2024/01/24 04:05:33;;;;;;;11.17;3.30;;;;;;;11.83;100.00;101318.09;5242757;28;20025;-71
2024/01/24 04:08:04;;;;;;;9.47;3.77;;;;;;;11.87;100.00;101304.13;5241239;28;20545;-71
2024/01/24 04:10:36;;;;;;;8.97;3.30;;;;;;;11.79;100.00;101285.91;5240997;28;20108;-72
2024/01/24 04:13:07;;;;;;;13.07;4.13;;;;;;;11.76;100.00;101292.91;5242605;28;20029;-72
2024/01/24 04:15:38;;;;;;;10.63;3.37;;;;;;;11.79;100.00;101306.81;5242496;28;20059;-73
2024/01/24 04:18:10;;;;;;;12.83;4.33;;;;;;;11.79;100.00;101282.44;5240960;28;20030;-72
2024/01/24 04:20:41;;;;;;;11.83;3.37;;;;;;;11.83;100.00;101287.63;5242043;28;20120;-72
2024/01/24 04:23:12;;;;;;;9.93;3.60;;;;;;;11.68;100.00;101293.84;5242309;28;20116;-73
2024/01/24 04:25:44;;;;;;;11.53;3.67;;;;;;;11.72;100.00;101284.25;5242015;28;20059;-71
2024/01/24 04:28:15;;;;;;;13.80;5.33;;;;;;;11.79;100.00;101298.13;5240907;28;20026;-71
2024/01/24 04:30:47;;;;;;;15.47;4.40;;;;;;;11.61;100.00;101326.13;5241488;28;20033;-72
2024/01/24 04:33:18;;;;;;;14.13;4.50;;;;;;;11.63;100.00;101333.94;5240240;28;20029;-71
2024/01/24 04:35:49;;;;;;;11.97;3.57;;;;;;;11.60;100.00;101345.28;5242150;28;20030;-72
2024/01/24 04:38:22;;;;;;;15.40;5.53;;;;;;;11.63;100.00;101358.31;5241594;28;20537;-72
2024/01/24 04:40:53;;;;;;;13.00;4.15;;;;;;;11.64;100.00;101352.22;5241054;28;20030;-72
2024/01/24 04:43:24;;;;;;;19.83;5.67;;;;;;;11.55;100.00;101335.75;5241675;28;20117;-72
2024/01/24 04:45:55;;;;;;;18.97;6.10;;;;;;;11.43;100.00;101336.69;5241495;28;20085;-72
2024/01/24 04:48:27;;;;;;;16.87;5.37;;;;;;;11.36;100.00;101335.03;5241770;28;20029;-70
2024/01/24 04:50:58;;;;;;;17.87;5.50;;;;;;;11.45;99.79;101361.91;5241440;28;20052;-72
2024/01/24 04:53:30;;;;;;;18.07;6.17;;;;;;;11.36;100.00;101348.06;5241332;28;20417;-71
2024/01/24 04:56:01;;;;;;;19.53;6.80;;;;;;;11.39;99.91;101356.75;5240281;28;20461;-71
2024/01/24 04:58:32;;;;;;;17.60;4.90;;;;;;;11.29;100.00;101350.72;5241456;28;20025;-72
2024/01/24 05:01:04;;;;;;;23.00;6.60;;;;;;;11.29;100.00;101328.97;5241215;28;20049;-71
2024/01/24 05:03:35;;;;;;;23.13;5.83;;;;;;;11.34;100.00;101334.19;5241868;28;20477;-72
2024/01/24 05:06:07;;;;;;;24.23;7.73;;;;;;;11.35;99.68;101328.06;5241462;28;20030;-71
2024/01/24 05:08:39;;;;;;;18.70;5.03;;;;;;;11.32;100.00;101324.59;5240094;28;20041;-71
2024/01/24 05:11:10;;;;;;;18.73;5.53;;;;;;;11.30;100.00;101347.25;5241297;28;20034;-72
2024/01/24 05:13:42;;;;;;;18.77;6.40;;;;;;;11.27;100.00;101349.88;5241274;28;20032;-71
2024/01/24 05:16:14;;;;;;;20.60;8.57;;;;;;;11.32;100.00;101381.16;5239662;28;20039;-71
2024/01/24 05:18:45;;;;;;;22.43;6.17;;;;;;;11.35;99.80;101385.47;5241109;28;20377;-71
2024/01/24 05:21:16;;;;;;;31.20;7.67;;;;;;;11.29;99.59;101423.81;5241165;28;20122;-73
2024/01/24 05:23:48;;;;;;;24.30;6.57;;;;;;;11.26;98.79;101400.31;5240997;28;20025;-72
2024/01/24 05:26:19;;;;;;;25.33;7.23;;;;;;;11.26;98.38;101378.59;5241090;28;20037;-71
2024/01/24 05:28:51;;;;;;;26.37;7.33;;;;;;;11.36;96.04;101408.09;5241051;28;20037;-71
2024/01/24 05:31:22;;;;;;;23.37;7.50;;;;;;;11.27;98.28;101385.53;5240424;28;20457;-72
2024/01/24 05:33:55;;;;;;;22.40;7.77;;;;;;;11.25;96.83;101402.94;5241033;28;20113;-71
2024/01/24 05:36:26;;;;;;;24.33;7.63;;;;;;;11.29;96.67;101407.28;5240794;28;20509;-71
2024/01/24 05:38:58;;;;;;;22.87;7.20;;;;;;;11.27;97.07;101399.47;5240712;28;20076;-71
2024/01/24 05:41:29;;;;;;;26.40;8.23;;;;;;;11.22;97.24;101418.63;5240737;28;20029;-72
2024/01/24 05:44:01;;;;;;;24.57;8.10;;;;;;;11.22;97.43;101408.19;5240503;28;20081;-71
2024/01/24 05:46:32;;;;;;;28.27;7.67;;;;;;;11.22;97.31;101410.78;5240614;28;20057;-71
2024/01/24 05:49:04;;;;;;;27.57;8.23;;;;;;;11.16;97.78;101424.75;5240382;28;20132;-72
2024/01/24 05:51:35;;;;;;;29.47;8.70;;;;;;;11.16;96.40;101427.34;5240389;28;20104;-70
2024/01/24 05:54:06;;;;;;;26.50;7.87;;;;;;;11.19;96.04;101419.50;5240284;28;20044;-70
2024/01/24 05:56:38;;;;;;;20.40;6.37;;;;;;;11.21;95.54;101422.13;5240899;28;20144;-70
2024/01/24 05:59:09;;;;;;;28.17;8.40;;;;;;;11.23;95.50;101425.59;5240602;28;20536;-71
2024/01/24 06:01:42;;;;;;;26.03;7.83;;;;;;;11.23;95.46;101447.31;5240250;28;20061;-70
2024/01/24 06:04:14;;;;;;;23.00;8.68;;;;;;;11.22;95.20;101435.16;5239151;28;20038;-71
2024/01/24 06:06:45;;;;;;;27.40;7.63;;;;;;;11.21;95.58;101459.50;5245631;28;20040;-71
2024/01/24 06:09:20;;;;;;;27.10;8.43;;;;;;;11.16;95.37;101453.44;5261229;28;20040;-71
2024/01/24 06:11:52;;;;;;;27.27;7.57;;;;;;;11.01;97.26;101467.44;5260553;28;20354;-72
2024/01/24 06:14:23;;;;;;;30.97;9.87;;;;;;;11.07;93.98;101471.75;5261078;28;20044;-72
2024/01/24 06:16:55;;;;;;;27.00;8.40;;;;;;;11.06;93.98;101455.25;5261172;28;20040;-71
2024/01/24 06:19:26;;;;;;;27.30;8.17;;;;;;;11.06;93.84;101473.50;5259812;28;20379;-70
2024/01/24 06:21:57;;;;;;;27.37;8.67;;;;;;;11.04;93.68;101493.47;5259830;28;20036;-71
2024/01/24 06:24:29;;;;;;;25.47;8.77;;;;;;;10.99;94.35;101508.28;5261037;28;20029;-71
2024/01/24 06:27:00;;;;;;;27.13;8.97;;;;;;;10.92;94.43;101499.63;5261112;28;20036;-72
2024/01/24 06:29:32;;;;;;;28.40;9.47;;;;;;;10.97;92.61;101522.22;5260933;28;20071;-71
2024/01/24 06:32:03;;;;;;;32.33;11.40;;;;;;;10.91;92.51;101521.34;5260655;28;20055;-71
2024/01/24 06:34:35;;;;;;;30.93;10.70;;;;;;;10.89;91.97;101524.84;5260637;28;20052;-72
2024/01/24 06:37:07;;;;;;;27.80;8.90;;;;;;;10.91;91.59;101546.56;5261029;28;20534;-71
2024/01/24 06:39:38;;;;;;;29.77;11.02;;;;;;;10.90;91.16;101496.16;5261049;28;20408;-72
2024/01/24 06:42:10;;;;;;;29.00;9.03;;;;;;;10.85;92.35;101552.69;5261009;28;20036;-72
2024/01/24 06:44:42;;;;;;;36.90;10.27;;;;;;;10.86;93.38;101562.22;5261081;28;20380;-71
2024/01/24 06:47:13;;;;;;;32.27;9.43;;;;;;;10.84;92.89;101569.19;5260533;28;20132;-70
2024/01/24 06:49:44;;;;;;;30.60;9.70;;;;;;;10.81;93.56;101565.72;5260919;28;20037;-71
2024/01/24 06:52:16;;;;;;;31.57;9.77;;;;;;;10.81;91.83;101586.59;5260937;28;20135;-70
2024/01/24 06:54:47;;;;;;;37.33;10.30;;;;;;;10.76;91.99;101613.53;5259632;28;20033;-70
2024/01/24 06:57:19;;;;;;;29.40;8.37;;;;;;;10.70;92.28;101617.88;5260874;28;20365;-71
2024/01/24 06:59:51;;;;;;;34.70;9.88;;;;;;;10.67;91.81;101644.81;5260871;28;20079;-70
2024/01/24 07:02:22;;;;;;;32.60;10.50;;;;;;;10.63;90.97;101631.81;5260455;28;20132;-70
2024/01/24 07:04:53;;;;;;;39.07;10.63;;;;;;;10.58;90.91;101637.88;5262429;28;20033;-70
2024/01/24 07:07:25;;;;;;;37.00;11.60;;;;;;;10.49;91.68;101593.53;5264272;28;20057;-70
2024/01/24 07:09:57;;;;;;;41.03;12.67;;;;;;;10.49;90.31;101590.94;5264237;28;20064;-71
2024/01/24 07:12:28;;;;;;;46.20;10.67;;;;;;;10.42;90.89;101611.78;5264398;28;20025;-71
2024/01/24 07:14:59;;;;;;;40.90;12.57;;;;;;;10.38;89.46;101609.19;5264245;28;20037;-70
2024/01/24 07:17:31;;;;;;;32.53;10.23;;;;;;;10.38;89.73;101617.00;5264424;28;20036;-70
2024/01/24 07:20:02;;;;;;;37.50;9.93;;;;;;;10.32;91.13;101630.03;5264161;28;20040;-70
2024/01/24 07:22:34;;;;;;;32.23;10.07;;;;;;;10.30;92.29;101638.66;5262899;28;20465;-70
2024/01/24 07:25:06;;;;;;;38.93;13.20;;;;;;;10.16;93.78;101642.13;5264071;28;20055;-70
2024/01/24 07:27:38;;;;;;;;;;;;;;;10.18;93.69;101642.97;5264493;28;20094;-71
2024/01/24 07:30:09;;;;;;;34.67;10.02;;;;;;;10.06;94.79;101652.50;5264100;28;19951;-71
2024/01/24 07:32:42;;;;;;;38.43;10.63;;;;;;;10.14;92.98;101659.47;5246588;28;20037;-71
2024/01/24 07:35:13;;;;;;;32.47;11.88;;;;;;;10.08;92.59;101664.66;5266130;28;20530;-71
2024/01/24 07:37:45;;;;;;;35.50;10.33;;;;;;;10.09;92.47;101666.38;5265956;28;20033;-71
2024/01/24 07:40:16;;;;;;;32.77;8.80;;;;;;;10.07;92.07;101667.28;5266536;28;20132;-71
2024/01/24 07:42:49;;;;;;;41.73;11.70;;;;;;;10.02;90.34;101657.69;5266118;28;20033;-70
2024/01/24 07:45:20;;;;;;;35.33;9.60;;;;;;;10.08;88.54;101663.78;5267766;28;20067;-71
2024/01/24 07:47:52;;;;;;;41.17;9.60;;;;;;;10.01;88.51;101663.78;5267789;28;20033;-71
2024/01/24 07:50:23;;;;;;;37.03;13.00;;;;;;;10.02;88.00;101672.47;5272598;28;20033;-72
2024/01/24 07:52:55;;;;;;;34.30;11.00;;;;;;;9.97;87.80;101684.59;5270469;28;20033;-71
2024/01/24 07:55:26;;;;;;;35.30;11.57;;;;;;;9.97;85.63;101710.66;5272446;28;20096;-71
2024/01/24 07:57:58;;;;;;;36.77;10.90;;;;;;;9.94;86.29;101705.41;5272442;28;20512;-71
2024/01/24 08:00:30;;;;;;;34.97;10.17;;;;;;;9.93;85.45;101711.47;5269037;28;20029;-72
2024/01/24 08:03:02;;;;;;;33.55;11.20;;;;;;;9.92;84.91;101704.53;5265812;28;20021;-72
2024/01/24 08:05:34;;;;;;;35.40;11.47;;;;;;;9.92;84.54;101717.53;5265771;28;20127;-71
2024/01/24 08:08:06;;;;;;;36.88;11.52;;;;;;;9.89;84.67;101715.81;5265167;28;20107;-71
2024/01/24 08:10:37;;;;;;;40.13;11.43;;;;;;;9.89;84.64;101715.81;5264865;28;20124;-71
2024/01/24 08:13:09;;;;;;;40.67;10.57;;;;;;;9.89;84.46;101712.34;5263625;28;20040;-71
2024/01/24 08:15:40;;;;;;;45.90;12.83;;;;;;;9.84;85.22;101720.13;5263604;28;20029;-72
2024/01/24 08:18:11;;;;;;;36.93;9.50;;;;;;;9.83;84.80;101727.06;5262569;28;20025;-71
2024/01/24 08:20:43;;;;;;;29.47;8.97;;;;;;;9.82;84.94;101730.53;5280676;28;20039;-72
2024/01/24 08:23:14;;;;;;;34.70;10.37;;;;;;;9.81;85.31;101743.56;5265913;28;20120;-72
2024/01/24 08:25:46;;;;;;;36.43;11.63;;;;;;;9.86;84.56;101747.03;5266169;28;20031;-72
2024/01/24 08:28:17;;;;;;;34.43;8.90;;;;;;;9.89;84.85;101759.22;5264291;28;20063;-71
2024/01/24 08:30:48;;;;;;;39.40;11.47;;;;;;;9.97;84.13;101761.00;5264826;28;20029;-72
2024/01/24 08:33:20;;;;;;;27.93;10.10;;;;;;;9.96;84.12;101758.38;5265705;28;20065;-72
2024/01/24 08:35:51;;;;;;;47.83;10.07;;;;;;;9.92;84.62;101740.97;5265542;28;20047;-72
2024/01/24 08:38:22;;;;;;;28.90;8.27;;;;;;;9.90;85.08;101769.66;5265459;28;20037;-73
2024/01/24 08:40:54;;;;;;;35.90;9.53;;;;;;;9.96;84.62;101771.41;5247824;28;20040;-71
2024/01/24 08:43:25;;;;;;;39.53;12.33;;;;;;;9.95;85.44;101774.88;5265190;28;20024;-70
2024/01/24 08:45:57;;;;;;;38.77;12.27;;;;;;;10.05;83.87;101789.69;5265209;28;20091;-71
2024/01/24 08:48:29;;;;;;;33.10;10.40;;;;;;;10.09;84.87;101780.16;5267428;28;20037;-72
2024/01/24 08:51:00;;;;;;;34.97;10.40;;;;;;;10.02;85.80;101794.88;5262950;28;20025;-71
2024/01/24 08:53:31;;;;;;;32.07;11.43;;;;;;;10.06;85.32;101791.41;5262705;28;20112;-70
2024/01/24 08:56:03;;;;;;;34.40;12.27;;;;;;;10.10;84.43;101772.34;5262639;28;20498;-70
2024/01/24 08:58:34;;;;;;;42.03;10.23;;;;;;;10.10;85.57;101779.31;5262785;28;20384;-71
2024/01/24 09:01:06;;;;;;;44.17;11.57;;;;;;;10.06;85.17;101777.53;5262181;28;20033;-72
2024/01/24 09:03:38;;;;;;;41.30;9.90;;;;;;;10.11;84.87;101787.13;5262244;28;20040;-71
2024/01/24 09:06:10;;;;;;;37.10;10.82;;;;;;;10.07;84.68;101834.84;5262723;28;20029;-71
2024/01/24 09:08:45;;;;;;;36.42;9.98;;;;;;;10.05;84.60;101826.16;5262566;28;20091;-71
2024/01/24 09:11:16;;;;;;;36.35;12.10;;;;;;;10.06;83.50;101840.91;5262377;28;20040;-71
2024/01/24 09:13:49;;;;;;;35.27;10.23;;;;;;;10.11;83.74;101853.97;5262200;28;20036;-71
2024/01/24 09:16:20;;;;;;;32.47;10.65;;;;;;;10.08;84.61;101823.59;5261853;28;20036;-70
2024/01/24 09:18:51;;;;;;;33.77;9.97;;;;;;;10.10;84.88;101818.38;5262387;28;20033;-71
2024/01/24 09:21:23;;;;;;;34.90;10.17;;;;;;;10.13;85.35;101821.00;5262094;28;20100;-71
2024/01/24 09:23:54;;;;;;;40.83;12.83;;;;;;;10.18;84.67;101821.91;5262518;28;20129;-71
2024/01/24 09:26:26;;;;;;;35.30;11.60;;;;;;;10.23;84.80;101896.63;5261870;28;20488;-71
2024/01/24 09:28:57;;;;;;;36.80;10.90;;;;;;;10.22;84.56;101848.00;5261548;28;20412;-71
2024/01/24 09:31:29;;;;;;;36.37;9.97;;;;;;;10.25;85.67;101844.50;5261699;28;20052;-71
2024/01/24 09:34:01;;;;;;;42.53;13.80;;;;;;;10.22;84.97;101881.88;5261935;28;20032;-70
2024/01/24 09:36:32;;;;;;;40.73;11.27;;;;;;;10.30;84.65;101905.34;5261891;28;20036;-71
2024/01/24 09:39:03;;;;;;;37.10;10.37;;;;;;;10.36;84.17;101896.75;5261404;28;20099;-71
2024/01/24 09:41:42;;;;;;;38.97;11.30;;;;;;;10.45;84.16;101908.94;5261407;28;20346;-71
2024/01/24 09:44:15;;;;;;;36.50;10.75;;;;;;;10.49;83.17;101906.38;5261527;28;20067;-70
2024/01/24 09:46:49;;;;;;;33.08;11.25;;;;;;;10.44;82.98;101917.63;5261504;28;20041;-70
2024/01/24 09:49:21;;;;;;;32.70;10.98;;;;;;;10.39;83.10;101915.88;5260161;28;20325;-71
2024/01/24 09:51:53;;;;;;;34.07;10.03;;;;;;;10.46;82.67;101884.63;5243825;28;20029;-71
2024/01/24 09:54:25;;;;;;;37.63;10.57;;;;;;;10.44;82.45;101936.75;5261520;28;20029;-71
2024/01/24 09:56:57;;;;;;;36.50;10.63;;;;;;;10.51;83.15;101889.00;5261731;28;20029;-72
2024/01/24 09:59:28;;;;;;;39.10;10.10;;;;;;;10.48;83.29;101909.84;5261459;28;20299;-72
2024/01/24 10:02:00;;;;;;;40.83;12.93;;;;;;;10.38;82.42;101945.41;5261020;28;20090;-71
2024/01/24 10:04:37;;;;;;;34.90;11.97;;;;;;;10.38;82.07;101939.31;5261494;28;20480;-71
2024/01/24 10:07:09;;;;;;;41.03;9.77;;;;;;;10.53;83.15;101933.34;5261460;28;20083;-71
2024/01/24 10:09:40;;;;;;;36.10;11.88;;;;;;;10.52;81.23;101947.22;5260152;28;20484;-71
2024/01/24 10:12:12;;;;;;;34.30;9.27;;;;;;;10.58;80.61;101971.59;5261015;28;20128;-71
2024/01/24 10:14:43;;;;;;;35.57;9.83;;;;;;;10.60;80.75;101950.75;5261334;28;20340;-71
2024/01/24 10:17:15;;;;;;;36.70;10.87;;;;;;;10.64;79.30;101941.22;5261042;28;20094;-71
2024/01/24 10:19:46;;;;;;;37.43;11.77;;;;;;;10.60;79.33;101966.41;5261181;28;20025;-71
2024/01/24 10:22:19;;;;;;;31.43;10.37;;;;;;;10.80;79.08;101961.28;5260948;28;20033;-71
2024/01/24 10:24:53;;;;;;;28.85;9.85;;;;;;;10.84;78.15;101960.44;5261225;28;20040;-70
2024/01/24 10:27:26;;;;;;;34.58;9.45;;;;;;;10.87;77.59;101973.50;5261244;28;20040;-73
2024/01/24 10:29:58;;;;;;;35.67;10.77;;;;;;;10.92;77.33;101990.03;5260827;28;20064;-70
2024/01/24 10:32:31;;;;;;;33.40;9.90;;;;;;;10.94;77.95;101993.53;5260558;28;20037;-71
2024/01/24 10:35:04;;;;;;;35.63;9.85;;;;;;;10.87;77.62;101976.13;5259486;28;20116;-71
2024/01/24 10:37:36;;;;;;;29.27;9.57;;;;;;;10.92;76.92;101966.56;5259557;28;20029;-71
2024/01/24 10:40:13;;;;;;;42.40;13.57;;;;;;;10.76;76.49;102016.91;5264244;28;20056;-71
2024/01/24 10:42:51;;;;;;;32.60;9.57;;;;;;;10.84;76.06;102007.41;5264942;28;20063;-71
2024/01/24 10:45:25;;;;;;;40.70;11.57;;;;;;;10.78;74.63;102077.78;5264914;28;20079;-70
2024/01/24 10:47:58;;;;;;;29.35;9.65;;;;;;;10.79;75.19;101998.69;5264868;28;20056;-70
2024/01/24 10:50:30;;;;;;;34.10;10.43;;;;;;;10.74;75.90;101992.56;5264745;28;20372;-71
2024/01/24 10:53:02;;;;;;;31.58;9.55;;;;;;;10.84;74.48;101994.34;5264880;28;20479;-70
2024/01/24 10:55:36;;;;;;;29.80;9.70;;;;;;;10.91;74.71;101993.50;5264664;28;20021;-72
2024/01/24 10:58:13;;;;;;;31.77;10.10;;;;;;;10.95;74.99;101989.19;5264789;28;20017;-71
2024/01/24 11:00:45;;;;;;;32.47;11.63;;;;;;;10.91;73.47;102009.16;5264154;28;20067;-70
2024/01/24 11:03:17;;;;;;;31.00;7.97;;;;;;;10.97;74.46;102017.91;5262892;28;20056;-71
2024/01/24 11:05:55;;;;;;;32.92;10.80;;;;;;;11.03;73.81;102000.53;5264231;28;20063;-71
2024/01/24 11:08:37;;;;;;;27.38;8.20;;;;;;;11.07;73.43;102036.22;5264624;28;20033;-70
2024/01/24 11:11:13;;;;;;;31.35;9.70;;;;;;;11.09;73.48;102023.16;5264662;28;20033;-71
2024/01/24 11:13:46;;;;;;;37.75;10.10;;;;;;;11.10;73.80;102031.00;5264699;28;20515;-72
2024/01/24 11:16:30;;;;;;;;;;;;;;;11.27;72.84;102007.63;5263584;28;20425;-72
2024/01/24 11:19:22;;;;;;;36.03;10.10;;;;;;;10.99;72.21;102021.38;5264324;28;20359;-71
2024/01/24 11:21:56;;;;;;;30.73;12.27;;;;;;;10.77;73.00;102032.56;5264306;28;20032;-72
2024/01/24 11:24:40;;;;;;;30.77;10.93;;;;;;;10.76;74.07;102045.59;5264324;28;20384;-71
2024/01/24 11:27:36;;;;;;;36.40;9.68;;;;;;;10.95;73.68;102050.06;5264170;28;20368;-71
2024/01/24 11:30:22;;;;;;;32.38;8.80;;;;;;;11.17;72.99;102070.19;5264131;28;20048;-71
2024/01/24 11:33:00;;;;;;;33.88;9.45;;;;;;;11.16;71.80;102064.09;5263626;28;20147;-70
2024/01/24 11:35:33;;;;;;;33.63;10.95;;;;;;;11.12;71.21;102075.38;5264003;28;20170;-71